Airfield :
LOGIN :

Register | Disclaimer

   EN    FR    IT 

 










Legend :    VFR   Marginal VFR   IFR   Intensive IFR   Very Intensive IFR
Visi :
Ceiling :
>= 8 km
>= 3000ft
5 to 8 km
1000 to 3000 ft
1500m to 5 km
500 to 1000 ft
800 to 1500m
200 to 500 ft
< 800m
< 200 ft
Symbols :   Thunderstorms  Fog  Heavy snow  Heavy precipitations  Wind > 20 kt
SIGMETs :     Misc.  Thunderstorms  Icing  Turbulence  Mountain Waves  Volcanic Ashes






- Airport Elevation : -11 ft
- IATA code : AMS


EHAM - Amsterdam Schiphol

CURRENT METAR :
  • 162225Z 16008KT 3500 BR OVC005 00/M01 Q1015 R18R/2///95 TEMPO 2500 -DZ BKN004

EXPIRED METARs :
  • 162155Z 18008KT 4500 BR BKN005 OVC007 00/M01 Q1015 R18R/1///95 NOSIG
  • 162125Z 17009KT 4500 BR BKN005 OVC006 M00/M01 Q1015 R18R/1///95 NOSIG
  • 162055Z 17010KT 4500 BR BKN005 OVC006 M00/M01 Q1015 R18R/1///95 TEMPO BKN004
  • 162025Z 17010KT 4500 BR SCT005 BKN006 OVC007 M00/M01 Q1016 R18R/1///95 NOSIG
  • 161955Z 17011KT 140V200 5000 BR FEW005 SCT006 BKN007 M00/M01 Q1016 R18R/1///95 NOSIG

TAF TAF EHAM
Valid from the 16 at 18:00 until the 18 at 00:00 UTC


161716Z 1618/1724 17012KT 4000 -SG BKN007
PROB30
TEMPO 1618/1623 2000 -FZDZ SCT002 BKN003
BECMG 1621/1624 2500 -DZ BR
PROB30
TEMPO 1621/1703 1200 DZ SCT001 BKN002
BECMG 1701/1704 31010KT 9999 NSW SCT025
PROB30
TEMPO 1704/1713 7000 -SHRA SCT020TCU BKN025
BECMG 1720/1723 27007KT



MET'MAP, your aeronautical weather chart ! - Copyright ORBIFLY December 2007 - Disclaimer

ORBIFLY MET'MAP TEAM :

Programming & Development : Alexandra Zaïnal
Concept & original design : Baudouin d'Aumeries
Assistance for programming : Marc-Olivier Méhu
Technical & hardware support : Manuel Goepfert

Contact : metmap@orbifly.com




SOURCES & CREDITS :

   NOAA